Bw Mindoro — MAKR9 — position and weather

sailwx.info

Track history (hours):
 
Tides and Currents Weather Stations Pressure Air Temp Water Temp Dewpoint Dewpoint Depression Visibility Wind Speed Wind Dir Waves Ship Positions

Bw Mindoro

Last reported at 2017-Sep-10 19:14 UTC. Time now 2017-Sep-24 08:47 UTC.
Position N 40°45' E 029°35'.
Warning: this ship's position is 13 days out of date.

Length 226 m; draft 11.4 m.

Type: Tanker. MMSI: 232005596.

Date/timePositionNaut miles runAvg speedWind from/ knotsBaromVisibWave heightAir tempDewpointWater temp
2017-Sep-10 19:14N 40°45' E 029°35'2 9.9
2017-Sep-10 19:00N 40°45' E 029°32'5 9.5
2017-Sep-10 18:30N 40°44' E 029°26'4 7.0
2017-Sep-10 18:00N 40°43' E 029°21'611.3
2017-Sep-10 17:30N 40°43' E 029°14'815.6
2017-Sep-10 17:00N 40°43' E 029°04'2615.3
2017-Sep-10 15:17N 40°43' E 028°29'715.0
2017-Sep-10 14:48N 40°43' E 028°19'1215.0
2017-Sep-10 14:00N 40°43' E 028°04'112 4.0
2017-Sep-09 09:57N 39°50' E 025°54'0 0.0
2017-Sep-09 09:30N 39°50' E 025°54'0 0.0
2017-Sep-09 08:19N 39°50' E 025°54'1 3.2
2017-Sep-09 08:01N 39°50' E 025°53'4 8.2
2017-Sep-09 07:30N 39°46' E 025°51'4815.3
2017-Sep-09 04:22N 39°04' E 025°21'11116.5
2017-Sep-08 21:39N 37°26' E 024°16'216.6
2017-Sep-08 21:30N 37°23' E 024°15'816.2
2017-Sep-08 21:00N 37°16' E 024°12'816.0
2017-Sep-08 20:30N 37°08' E 024°09'815.8
2017-Sep-08 20:00N 37°01' E 024°05'816.0
2017-Sep-08 19:30N 36°53' E 024°02'816.5
2017-Sep-08 19:00N 36°46' E 023°58'816.4
2017-Sep-08 18:30N 36°39' E 023°53'3615.9
2017-Sep-08 16:14N 36°08' E 023°29'40316.2
2017-Sep-07 15:19N 36°19' E 015°10'617.1
2017-Sep-07 14:56N 36°20' E 015°02'817.6
2017-Sep-07 14:30N 36°21' E 014°52'917.6
2017-Sep-07 14:00N 36°23' E 014°41'917.2
2017-Sep-07 13:30N 36°26' E 014°31'917.3
2017-Sep-07 13:00N 36°29' E 014°21'817.3
2017-Sep-07 12:30N 36°31' E 014°11'1017.3
2017-Sep-07 11:55N 36°34' E 013°59'717.4
2017-Sep-07 11:30N 36°37' E 013°50'917.4
2017-Sep-07 11:00N 36°39' E 013°40'917.1
2017-Sep-07 10:30N 36°41' E 013°30'816.8
2017-Sep-07 10:00N 36°44' E 013°20'916.6
2017-Sep-07 09:29N 36°46' E 013°10'816.6
2017-Sep-07 09:00N 36°49' E 013°00'916.5
2017-Sep-07 08:28N 36°52' E 012°50'1216.7
2017-Sep-07 07:45N 36°56' E 012°36'21116.6
2017-Sep-06 19:01N 37°53' E 008°19'25516.3
2017-Sep-06 03:24N 37°34' E 002°57'716.1
2017-Sep-06 03:00N 37°33' E 002°49'816.2
2017-Sep-06 02:30N 37°32' E 002°39'816.3
2017-Sep-06 01:59N 37°32' E 002°29'1116.2
2017-Sep-06 01:19N 37°28' E 002°15'516.3
2017-Sep-06 01:00N 37°27' E 002°09'816.3
2017-Sep-06 00:30N 37°24' E 001°60'816.1
2017-Sep-06 00:00N 37°21' E 001°50'816.0
2017-Sep-05 23:29N 37°19' E 001°40'816.0
2017-Sep-05 22:59N 37°17' E 001°31'815.9
2017-Sep-05 22:30N 37°15' E 001°21'1315.8
2017-Sep-05 21:42N 37°12' E 001°06'315.6
2017-Sep-05 21:30N 37°11' E 001°02'815.6
2017-Sep-05 21:00N 37°07' E 000°53'815.8
2017-Sep-05 20:30N 37°05' E 000°44'816.2
2017-Sep-05 20:00N 37°02' E 000°34'816.0
2017-Sep-05 19:30N 36°59' E 000°25'815.6
2017-Sep-05 19:00N 36°57' E 000°16'815.7
2017-Sep-05 18:29N 36°55' E 000°06'815.8
2017-Sep-05 18:00N 36°52' W 000°03'815.6
2017-Sep-05 17:30N 36°50' W 000°12'915.1
2017-Sep-05 16:56N 36°47' W 000°23'614.9
2017-Sep-05 16:30N 36°46' W 000°30'815.1
2017-Sep-05 15:57N 36°43' W 000°40'715.1
2017-Sep-05 15:30N 36°41' W 000°48'815.4
2017-Sep-05 14:58N 36°38' W 000°58'26216.4
2017-Sep-04 23:01N 35°54' W 006°18'116.1
2017-Sep-04 22:58N 35°54' W 006°19'816.6
2017-Sep-04 22:31N 35°56' W 006°28'1016.9
2017-Sep-04 21:53N 35°58' W 006°41'2816.6
2017-Sep-04 20:13N 36°05' W 007°14'316.0
2017-Sep-04 20:00N 36°05' W 007°18'1015.9
2017-Sep-04 19:24N 36°07' W 007°30'1016.1
2017-Sep-04 18:47N 36°09' W 007°42'516.2
2017-Sep-04 18:30N 36°11' W 007°47'6016.5
2017-Sep-04 14:51N 36°26' W 008°60'916.5
2017-Sep-04 14:17N 36°28' W 009°11'11415.7
2017-Sep-04 07:02N 38°14' W 010°03'117.1
2017-Sep-04 06:59N 38°15' W 010°04'2516.6
2017-Sep-04 05:30N 38°39' W 010°11'816.3
2017-Sep-04 05:00N 38°47' W 010°13'916.5
2017-Sep-04 04:27N 38°56' W 010°11'716.4
2017-Sep-04 04:00N 39°03' W 010°11'816.4
2017-Sep-04 03:30N 39°12' W 010°11'916.3
2017-Sep-04 02:55N 39°21' W 010°11'1216.4
2017-Sep-04 02:13N 39°33' W 010°12'616.4
2017-Sep-04 01:51N 39°39' W 010°12'64115.3
2017-Sep-02 07:54N 49°28' W 004°17'717.1
2017-Sep-02 07:30N 49°31' W 004°08'816.9
2017-Sep-02 06:59N 49°35' W 003°56'816.8
2017-Sep-02 06:30N 49°39' W 003°45'816.5
2017-Sep-02 06:00N 49°43' W 003°34'816.3
2017-Sep-02 05:30N 49°48' W 003°24'816.0
2017-Sep-02 05:00N 49°52' W 003°14'815.9
2017-Sep-02 04:30N 49°56' W 003°03'815.4
2017-Sep-02 04:00N 49°60' W 002°52'815.7
2017-Sep-02 03:30N 50°02' W 002°40'2816.0
2017-Sep-02 01:47N 50°09' W 001°59'516.8
2017-Sep-02 01:29N 50°11' W 001°52'1017.1
2017-Sep-02 00:54N 50°13' W 001°37'817.6
2017-Sep-02 00:28N 50°15' W 001°25'918.0
2017-Sep-01 23:59N 50°17' W 001°12'918.3
2017-Sep-01 23:30N 50°20' W 000°59'1918.1
2017-Sep-01 22:27N 50°25' W 000°30'817.7
2017-Sep-01 22:00N 50°27' W 000°18'917.3
2017-Sep-01 21:30N 50°29' W 000°05'917.1
2017-Sep-01 21:00N 50°32' E 000°08'816.5
2017-Sep-01 20:30N 50°34' E 000°21'816.4
2017-Sep-01 20:00N 50°36' E 000°33'816.0
2017-Sep-01 19:30N 50°40' E 000°44'815.8
2017-Sep-01 19:00N 50°44' E 000°54'815.3
2017-Sep-01 18:30N 50°49' E 001°04'815.1
2017-Sep-01 18:00N 50°53' E 001°14'714.1
2017-Sep-01 17:30N 50°58' E 001°22'714.8
2017-Sep-01 17:01N 51°03' E 001°30'816.0
2017-Sep-01 16:30N 51°09' E 001°39'917.2
2017-Sep-01 16:00N 51°16' E 001°47'917.5
2017-Sep-01 15:30N 51°24' E 001°54'917.1
2017-Sep-01 15:00N 51°30' E 002°02'917.1
2017-Sep-01 14:30N 51°36' E 002°12'916.9
2017-Sep-01 14:00N 51°42' E 002°22'1516.4
2017-Sep-01 13:04N 51°54' E 002°37'115.9
2017-Sep-01 13:00N 51°55' E 002°38'  
Track history (hours):
 
Tides and Currents Weather Stations Pressure Air Temp Water Temp Dewpoint Dewpoint Depression Visibility Wind Speed Wind Dir Waves Ship Positions

Bw Mindoro

Last reported at 2017-Sep-10 19:14 UTC. Time now 2017-Sep-24 08:47 UTC.
Position N 40°45' E 029°35'.
Warning: this ship's position is 13 days out of date.

Length 226 m; draft 11.4 m.

Type: Tanker. MMSI: 232005596.

Date/timePositionNaut miles runAvg speedWind from/ knotsBaromVisibWave heightAir tempDewpointWater temp
2017-Sep-10 19:14N 40°45' E 029°35'2 9.9
2017-Sep-10 19:00N 40°45' E 029°32'5 9.5
2017-Sep-10 18:30N 40°44' E 029°26'4 7.0
2017-Sep-10 18:00N 40°43' E 029°21'611.3
2017-Sep-10 17:30N 40°43' E 029°14'815.6
2017-Sep-10 17:00N 40°43' E 029°04'2615.3
2017-Sep-10 15:17N 40°43' E 028°29'715.0
2017-Sep-10 14:48N 40°43' E 028°19'1215.0
2017-Sep-10 14:00N 40°43' E 028°04'112 4.0
2017-Sep-09 09:57N 39°50' E 025°54'0 0.0
2017-Sep-09 09:30N 39°50' E 025°54'0 0.0
2017-Sep-09 08:19N 39°50' E 025°54'1 3.2
2017-Sep-09 08:01N 39°50' E 025°53'4 8.2
2017-Sep-09 07:30N 39°46' E 025°51'4815.3
2017-Sep-09 04:22N 39°04' E 025°21'11116.5
2017-Sep-08 21:39N 37°26' E 024°16'216.6
2017-Sep-08 21:30N 37°23' E 024°15'816.2
2017-Sep-08 21:00N 37°16' E 024°12'816.0
2017-Sep-08 20:30N 37°08' E 024°09'815.8
2017-Sep-08 20:00N 37°01' E 024°05'816.0
2017-Sep-08 19:30N 36°53' E 024°02'816.5
2017-Sep-08 19:00N 36°46' E 023°58'816.4
2017-Sep-08 18:30N 36°39' E 023°53'3615.9
2017-Sep-08 16:14N 36°08' E 023°29'40316.2
2017-Sep-07 15:19N 36°19' E 015°10'617.1
2017-Sep-07 14:56N 36°20' E 015°02'817.6
2017-Sep-07 14:30N 36°21' E 014°52'917.6
2017-Sep-07 14:00N 36°23' E 014°41'917.2
2017-Sep-07 13:30N 36°26' E 014°31'917.3
2017-Sep-07 13:00N 36°29' E 014°21'817.3
2017-Sep-07 12:30N 36°31' E 014°11'1017.3
2017-Sep-07 11:55N 36°34' E 013°59'717.4
2017-Sep-07 11:30N 36°37' E 013°50'917.4
2017-Sep-07 11:00N 36°39' E 013°40'917.1
2017-Sep-07 10:30N 36°41' E 013°30'816.8
2017-Sep-07 10:00N 36°44' E 013°20'916.6
2017-Sep-07 09:29N 36°46' E 013°10'816.6
2017-Sep-07 09:00N 36°49' E 013°00'916.5
2017-Sep-07 08:28N 36°52' E 012°50'1216.7
2017-Sep-07 07:45N 36°56' E 012°36'21116.6
2017-Sep-06 19:01N 37°53' E 008°19'25516.3
2017-Sep-06 03:24N 37°34' E 002°57'716.1
2017-Sep-06 03:00N 37°33' E 002°49'816.2
2017-Sep-06 02:30N 37°32' E 002°39'816.3
2017-Sep-06 01:59N 37°32' E 002°29'1116.2
2017-Sep-06 01:19N 37°28' E 002°15'516.3
2017-Sep-06 01:00N 37°27' E 002°09'816.3
2017-Sep-06 00:30N 37°24' E 001°60'816.1
2017-Sep-06 00:00N 37°21' E 001°50'816.0
2017-Sep-05 23:29N 37°19' E 001°40'816.0
2017-Sep-05 22:59N 37°17' E 001°31'815.9
2017-Sep-05 22:30N 37°15' E 001°21'1315.8
2017-Sep-05 21:42N 37°12' E 001°06'315.6
2017-Sep-05 21:30N 37°11' E 001°02'815.6
2017-Sep-05 21:00N 37°07' E 000°53'815.8
2017-Sep-05 20:30N 37°05' E 000°44'816.2
2017-Sep-05 20:00N 37°02' E 000°34'816.0
2017-Sep-05 19:30N 36°59' E 000°25'815.6
2017-Sep-05 19:00N 36°57' E 000°16'815.7
2017-Sep-05 18:29N 36°55' E 000°06'815.8
2017-Sep-05 18:00N 36°52' W 000°03'815.6
2017-Sep-05 17:30N 36°50' W 000°12'915.1
2017-Sep-05 16:56N 36°47' W 000°23'614.9
2017-Sep-05 16:30N 36°46' W 000°30'815.1
2017-Sep-05 15:57N 36°43' W 000°40'715.1
2017-Sep-05 15:30N 36°41' W 000°48'815.4
2017-Sep-05 14:58N 36°38' W 000°58'26216.4
2017-Sep-04 23:01N 35°54' W 006°18'116.1
2017-Sep-04 22:58N 35°54' W 006°19'816.6
2017-Sep-04 22:31N 35°56' W 006°28'1016.9
2017-Sep-04 21:53N 35°58' W 006°41'2816.6
2017-Sep-04 20:13N 36°05' W 007°14'316.0
2017-Sep-04 20:00N 36°05' W 007°18'1015.9
2017-Sep-04 19:24N 36°07' W 007°30'1016.1
2017-Sep-04 18:47N 36°09' W 007°42'516.2
2017-Sep-04 18:30N 36°11' W 007°47'6016.5
2017-Sep-04 14:51N 36°26' W 008°60'916.5
2017-Sep-04 14:17N 36°28' W 009°11'11415.7
2017-Sep-04 07:02N 38°14' W 010°03'117.1
2017-Sep-04 06:59N 38°15' W 010°04'2516.6
2017-Sep-04 05:30N 38°39' W 010°11'816.3
2017-Sep-04 05:00N 38°47' W 010°13'916.5
2017-Sep-04 04:27N 38°56' W 010°11'716.4
2017-Sep-04 04:00N 39°03' W 010°11'816.4
2017-Sep-04 03:30N 39°12' W 010°11'916.3
2017-Sep-04 02:55N 39°21' W 010°11'1216.4
2017-Sep-04 02:13N 39°33' W 010°12'616.4
2017-Sep-04 01:51N 39°39' W 010°12'64115.3
2017-Sep-02 07:54N 49°28' W 004°17'717.1
2017-Sep-02 07:30N 49°31' W 004°08'816.9
2017-Sep-02 06:59N 49°35' W 003°56'816.8
2017-Sep-02 06:30N 49°39' W 003°45'816.5
2017-Sep-02 06:00N 49°43' W 003°34'816.3
2017-Sep-02 05:30N 49°48' W 003°24'816.0
2017-Sep-02 05:00N 49°52' W 003°14'815.9
2017-Sep-02 04:30N 49°56' W 003°03'815.4
2017-Sep-02 04:00N 49°60' W 002°52'815.7
2017-Sep-02 03:30N 50°02' W 002°40'2816.0
2017-Sep-02 01:47N 50°09' W 001°59'516.8
2017-Sep-02 01:29N 50°11' W 001°52'1017.1
2017-Sep-02 00:54N 50°13' W 001°37'817.6
2017-Sep-02 00:28N 50°15' W 001°25'918.0
2017-Sep-01 23:59N 50°17' W 001°12'918.3
2017-Sep-01 23:30N 50°20' W 000°59'1918.1
2017-Sep-01 22:27N 50°25' W 000°30'817.7
2017-Sep-01 22:00N 50°27' W 000°18'917.3
2017-Sep-01 21:30N 50°29' W 000°05'917.1
2017-Sep-01 21:00N 50°32' E 000°08'816.5
2017-Sep-01 20:30N 50°34' E 000°21'816.4
2017-Sep-01 20:00N 50°36' E 000°33'816.0
2017-Sep-01 19:30N 50°40' E 000°44'815.8
2017-Sep-01 19:00N 50°44' E 000°54'815.3
2017-Sep-01 18:30N 50°49' E 001°04'815.1
2017-Sep-01 18:00N 50°53' E 001°14'714.1
2017-Sep-01 17:30N 50°58' E 001°22'714.8
2017-Sep-01 17:01N 51°03' E 001°30'816.0
2017-Sep-01 16:30N 51°09' E 001°39'917.2
2017-Sep-01 16:00N 51°16' E 001°47'917.5
2017-Sep-01 15:30N 51°24' E 001°54'917.1
2017-Sep-01 15:00N 51°30' E 002°02'917.1
2017-Sep-01 14:30N 51°36' E 002°12'916.9
2017-Sep-01 14:00N 51°42' E 002°22'1516.4
2017-Sep-01 13:04N 51°54' E 002°37'115.9
2017-Sep-01 13:00N 51°55' E 002°38'  

Dump ship's entire track history